createdAt,value
2024-02-15T00:00:39.560Z,942.1
2024-02-15T00:01:40.423Z,942.07
2024-02-15T00:03:41.892Z,942.06
2024-02-15T00:04:42.782Z,942.08
2024-02-15T00:05:43.832Z,942.07
2024-02-15T00:06:44.728Z,942.09
2024-02-15T00:07:45.073Z,942.06
2024-02-15T00:08:45.973Z,942.02
2024-02-15T00:09:46.071Z,942.06
2024-02-15T00:10:46.759Z,942.03
2024-02-15T00:11:47.813Z,942.05
2024-02-15T00:12:47.914Z,942.06
2024-02-15T00:13:48.846Z,942.05
2024-02-15T00:14:49.765Z,942.08
2024-02-15T00:15:50.285Z,942.09
2024-02-15T00:16:51.060Z,942.09
2024-02-15T00:17:51.788Z,942.11
2024-02-15T00:18:52.794Z,942.08
2024-02-15T00:19:53.490Z,942.12
2024-02-15T00:20:54.455Z,942.15
2024-02-15T00:21:54.939Z,942.14
2024-02-15T00:22:55.185Z,942.15
2024-02-15T00:23:56.068Z,942.16
2024-02-15T00:24:56.515Z,942.18
2024-02-15T00:25:57.553Z,942.2
2024-02-15T00:26:58.031Z,942.22
2024-02-15T00:27:58.223Z,942.22
2024-02-15T00:28:58.340Z,942.21
2024-02-15T00:29:59.001Z,942.22
2024-02-15T00:30:59.407Z,942.23
2024-02-15T00:32:00.020Z,942.26
2024-02-15T00:33:01.167Z,942.26
2024-02-15T00:34:01.502Z,942.29
2024-02-15T00:35:01.569Z,942.3
2024-02-15T00:36:02.162Z,942.28
2024-02-15T00:37:02.777Z,942.29
2024-02-15T00:38:03.078Z,942.23
2024-02-15T00:39:03.712Z,942.2
2024-02-15T00:40:04.273Z,942.2
2024-02-15T00:41:05.088Z,942.22
2024-02-15T00:42:06.117Z,942.21
2024-02-15T00:43:06.463Z,942.23
2024-02-15T00:44:06.744Z,942.24
2024-02-15T00:45:07.732Z,942.24
2024-02-15T00:46:08.074Z,942.27
2024-02-15T00:47:08.315Z,942.25
2024-02-15T00:48:09.131Z,942.27
2024-02-15T00:49:09.562Z,942.25
2024-02-15T00:50:09.993Z,942.27
2024-02-15T00:51:10.444Z,942.26
2024-02-15T00:52:10.617Z,942.22
2024-02-15T00:53:10.929Z,942.24
2024-02-15T00:54:11.557Z,942.16
2024-02-15T00:55:11.965Z,942.16
2024-02-15T00:56:12.239Z,942.11
2024-02-15T00:57:13.339Z,942.12
2024-02-15T00:58:14.270Z,942.15
2024-02-15T00:59:14.695Z,942.16
2024-02-15T01:00:15.442Z,942.15
2024-02-15T01:01:16.428Z,942.16
2024-02-15T01:02:17.008Z,942.2
2024-02-15T01:03:18.044Z,942.18
2024-02-15T01:04:18.762Z,942.16
2024-02-15T01:05:19.377Z,942.17
2024-02-15T01:06:19.573Z,942.17
2024-02-15T01:07:20.222Z,942.2
2024-02-15T01:08:20.739Z,942.19
2024-02-15T01:09:21.610Z,942.2
2024-02-15T01:10:22.673Z,942.17
2024-02-15T01:11:23.442Z,942.19
2024-02-15T01:12:23.916Z,942.17
2024-02-15T01:13:24.984Z,942.16
2024-02-15T01:14:25.607Z,942.13
2024-02-15T01:15:26.424Z,942.14
2024-02-15T01:16:27.301Z,942.13
2024-02-15T01:17:28.232Z,942.11
2024-02-15T01:18:29.064Z,942.13
2024-02-15T01:19:29.854Z,942.14
2024-02-15T01:20:30.033Z,942.13
2024-02-15T01:21:30.309Z,942.18
2024-02-15T01:22:30.665Z,942.21
2024-02-15T01:23:31.103Z,942.18
2024-02-15T01:24:31.973Z,942.21
2024-02-15T01:25:32.773Z,942.2
2024-02-15T01:26:33.468Z,942.17
2024-02-15T01:27:34.003Z,942.16
2024-02-15T01:28:34.137Z,942.18
2024-02-15T01:29:34.820Z,942.18
2024-02-15T01:30:35.142Z,942.18
2024-02-15T01:31:35.988Z,942.15
2024-02-15T01:32:36.857Z,942.18
2024-02-15T01:33:37.338Z,942.13
2024-02-15T01:34:38.342Z,942.15
2024-02-15T01:35:38.629Z,942.15
2024-02-15T01:36:39.441Z,942.14
2024-02-15T01:37:39.535Z,942.12
2024-02-15T01:38:39.872Z,942.1
2024-02-15T01:39:40.092Z,942.11
2024-02-15T01:40:40.719Z,942.11
2024-02-15T01:41:41.757Z,942.07
2024-02-15T01:42:41.852Z,942.08
2024-02-15T01:43:42.708Z,942.05
2024-02-15T01:44:43.441Z,942.08
2024-02-15T01:45:43.614Z,942.08
2024-02-15T01:46:44.625Z,942.07
2024-02-15T01:47:45.278Z,942.09
2024-02-15T01:48:46.109Z,942.08
2024-02-15T01:49:46.987Z,942.05
2024-02-15T01:50:47.071Z,942.05
2024-02-15T01:51:47.313Z,942.03
2024-02-15T01:52:47.654Z,942.04
2024-02-15T01:53:47.911Z,942.05
2024-02-15T01:54:48.777Z,942.06
2024-02-15T01:55:49.448Z,942.06
2024-02-15T01:56:50.144Z,942.03
2024-02-15T01:57:50.476Z,941.98
2024-02-15T01:58:50.727Z,942.05
2024-02-15T01:59:51.346Z,942.01
2024-02-15T02:00:51.730Z,942.02
2024-02-15T02:01:51.963Z,941.99
2024-02-15T02:02:53.101Z,941.98
2024-02-15T02:03:53.856Z,941.95
2024-02-15T02:04:54.859Z,941.96
2024-02-15T02:05:55.301Z,941.94
2024-02-15T02:06:55.716Z,941.91
2024-02-15T02:07:55.819Z,941.89
2024-02-15T02:08:56.502Z,941.91
2024-02-15T02:09:57.112Z,941.85
2024-02-15T02:10:57.793Z,941.89
2024-02-15T02:11:58.707Z,941.86
2024-02-15T02:12:59.105Z,941.88
2024-02-15T02:13:59.375Z,941.85
2024-02-15T02:15:00.522Z,941.85
2024-02-15T02:16:01.096Z,941.82
2024-02-15T02:17:01.292Z,941.83
2024-02-15T02:18:02.553Z,941.84
2024-02-15T02:19:03.438Z,941.79
2024-02-15T02:20:03.970Z,941.83
2024-02-15T02:21:04.193Z,941.81
2024-02-15T02:22:04.946Z,941.84
2024-02-15T02:23:05.821Z,941.8
2024-02-15T02:24:06.794Z,941.81
2024-02-15T02:25:06.922Z,941.79
2024-02-15T02:26:07.710Z,941.82
2024-02-15T02:27:08.584Z,941.81
2024-02-15T02:28:09.015Z,941.83
2024-02-15T02:29:10.118Z,941.83
2024-02-15T02:30:10.576Z,941.8
2024-02-15T02:31:11.305Z,941.82
2024-02-15T02:32:12.388Z,941.82
2024-02-15T02:33:13.170Z,941.82
2024-02-15T02:34:13.328Z,941.83
2024-02-15T02:35:14.151Z,941.81
2024-02-15T02:36:14.902Z,941.83
2024-02-15T02:37:15.527Z,941.83
2024-02-15T02:38:15.637Z,941.79
2024-02-15T02:39:16.011Z,941.79
2024-02-15T02:40:16.568Z,941.82
2024-02-15T02:41:17.429Z,941.83
2024-02-15T02:42:18.282Z,941.8
2024-02-15T02:43:18.918Z,941.79
2024-02-15T02:44:19.755Z,941.8
2024-02-15T02:45:20.010Z,941.8
2024-02-15T02:46:20.602Z,941.78
2024-02-15T02:47:21.261Z,941.77
2024-02-15T02:48:22.401Z,941.78
2024-02-15T02:49:22.751Z,941.8
2024-02-15T02:50:23.768Z,941.82
2024-02-15T02:51:23.855Z,941.81
2024-02-15T02:52:25.050Z,941.79
2024-02-15T02:53:25.305Z,941.79
2024-02-15T02:54:25.796Z,941.78
2024-02-15T02:55:26.056Z,941.77
2024-02-15T02:56:26.575Z,941.75
2024-02-15T02:57:27.125Z,941.77
2024-02-15T02:58:27.954Z,941.76
2024-02-15T02:59:28.865Z,941.76
2024-02-15T03:00:29.826Z,941.75
2024-02-15T03:01:30.572Z,941.76
2024-02-15T03:02:31.604Z,941.74
2024-02-15T03:03:32.456Z,941.76
2024-02-15T03:04:32.678Z,941.73
2024-02-15T03:05:32.897Z,941.75
2024-02-15T03:06:33.433Z,941.73
2024-02-15T03:07:33.986Z,941.71
2024-02-15T03:08:34.491Z,941.74
2024-02-15T03:09:34.875Z,941.69
2024-02-15T03:10:35.688Z,941.73
2024-02-15T03:11:36.345Z,941.7
2024-02-15T03:12:36.747Z,941.73
2024-02-15T03:13:37.646Z,941.72
2024-02-15T03:14:38.501Z,941.69
2024-02-15T03:15:38.646Z,941.71
2024-02-15T03:16:39.030Z,941.73
2024-02-15T03:17:40.209Z,941.71
2024-02-15T03:18:40.882Z,941.7
2024-02-15T03:19:41.161Z,941.68
2024-02-15T03:20:41.843Z,941.69
2024-02-15T03:21:42.261Z,941.72
2024-02-15T03:22:42.702Z,941.71
2024-02-15T03:23:43.040Z,941.68
2024-02-15T03:24:43.612Z,941.68
2024-02-15T03:25:44.453Z,941.7
2024-02-15T03:26:45.516Z,941.66
2024-02-15T03:27:45.682Z,941.69
2024-02-15T03:28:45.970Z,941.67
2024-02-15T03:29:46.562Z,941.67
2024-02-15T03:30:47.456Z,941.71
2024-02-15T03:31:48.304Z,941.66
2024-02-15T03:32:49.184Z,941.65
2024-02-15T03:33:49.715Z,941.68
2024-02-15T03:34:50.507Z,941.67
2024-02-15T03:35:51.411Z,941.68
2024-02-15T03:36:52.313Z,941.66
2024-02-15T03:37:52.988Z,941.69
2024-02-15T03:38:53.147Z,941.66
2024-02-15T03:39:53.541Z,941.7
2024-02-15T03:40:54.413Z,941.7
2024-02-15T03:41:55.143Z,941.7
2024-02-15T03:42:55.638Z,941.7
2024-02-15T03:43:56.260Z,941.69
2024-02-15T03:44:57.163Z,941.65
2024-02-15T03:45:57.260Z,941.61
2024-02-15T03:46:59.664Z,941.67
2024-02-15T03:47:58.723Z,941.67
2024-02-15T03:48:59.089Z,941.66
2024-02-15T03:49:59.156Z,941.67
2024-02-15T03:50:59.816Z,941.67
2024-02-15T03:52:00.243Z,941.68
2024-02-15T03:53:01.130Z,941.66
2024-02-15T03:54:01.365Z,941.69
2024-02-15T03:55:01.860Z,941.68
2024-02-15T03:56:02.720Z,941.69
2024-02-15T03:57:03.688Z,941.69
2024-02-15T03:58:03.893Z,941.71
2024-02-15T03:59:04.915Z,941.72
2024-02-15T04:00:05.944Z,941.67
2024-02-15T04:01:06.301Z,941.72
2024-02-15T04:02:06.352Z,941.71
2024-02-15T04:03:06.658Z,941.73
2024-02-15T04:04:06.884Z,941.74
2024-02-15T04:05:07.385Z,941.74
2024-02-15T04:06:08.195Z,941.71
2024-02-15T04:07:09.002Z,941.73
2024-02-15T04:08:09.542Z,941.72
2024-02-15T04:09:09.938Z,941.71
2024-02-15T04:10:10.426Z,941.74
2024-02-15T04:11:10.748Z,941.7
2024-02-15T04:12:11.395Z,941.69
2024-02-15T04:13:12.355Z,941.69
2024-02-15T04:14:13.198Z,941.67
2024-02-15T04:15:14.479Z,941.66
2024-02-15T04:16:15.019Z,941.7
2024-02-15T04:17:15.491Z,941.69
2024-02-15T04:18:15.678Z,941.68
2024-02-15T04:19:15.880Z,941.66
2024-02-15T04:20:16.554Z,941.67
2024-02-15T04:21:16.969Z,941.65
2024-02-15T04:22:17.756Z,941.67
2024-02-15T04:23:18.555Z,941.64
2024-02-15T04:24:18.856Z,941.68
2024-02-15T04:25:19.332Z,941.62
2024-02-15T04:26:20.056Z,941.66
2024-02-15T04:27:20.574Z,941.65
2024-02-15T04:28:21.574Z,941.62
2024-02-15T04:29:22.576Z,941.66
2024-02-15T04:30:23.344Z,941.59
2024-02-15T04:31:24.295Z,941.63
2024-02-15T04:32:24.433Z,941.61
2024-02-15T04:33:25.003Z,941.64
2024-02-15T04:34:26.008Z,941.65
2024-02-15T04:35:26.260Z,941.66
2024-02-15T04:36:27.138Z,941.66
2024-02-15T04:37:27.543Z,941.63
2024-02-15T04:38:28.105Z,941.67
2024-02-15T04:39:28.461Z,941.66
2024-02-15T04:40:28.663Z,941.65
2024-02-15T04:41:29.560Z,941.64
2024-02-15T04:42:30.289Z,941.64
2024-02-15T04:43:30.398Z,941.66
2024-02-15T04:44:31.117Z,941.65
2024-02-15T04:45:32.051Z,941.66
2024-02-15T04:46:32.776Z,941.65
2024-02-15T04:47:33.399Z,941.67
2024-02-15T04:48:34.074Z,941.66
2024-02-15T04:49:34.310Z,941.67
2024-02-15T04:50:34.996Z,941.7
2024-02-15T04:51:35.900Z,941.66
2024-02-15T04:52:36.409Z,941.63
2024-02-15T04:53:36.968Z,941.66
2024-02-15T04:54:37.077Z,941.65
2024-02-15T04:55:38.072Z,941.67
2024-02-15T04:56:39.055Z,941.66
2024-02-15T04:57:39.441Z,941.67
2024-02-15T04:58:40.254Z,941.7
2024-02-15T04:59:40.810Z,941.66
2024-02-15T05:00:41.025Z,941.66
2024-02-15T05:01:42.006Z,941.69
2024-02-15T05:02:43.052Z,941.68
2024-02-15T05:03:43.179Z,941.67
2024-02-15T05:04:44.081Z,941.65
2024-02-15T05:05:44.821Z,941.69
2024-02-15T05:06:45.205Z,941.68
2024-02-15T05:07:45.518Z,941.71
2024-02-15T05:08:46.002Z,941.72
2024-02-15T05:09:46.128Z,941.69
2024-02-15T05:10:47.117Z,941.66
2024-02-15T05:11:48.087Z,941.67
2024-02-15T05:12:48.616Z,941.71
2024-02-15T05:13:49.512Z,941.67
2024-02-15T05:14:50.431Z,941.63
2024-02-15T05:15:51.416Z,941.64
2024-02-15T05:16:52.187Z,941.65
2024-02-15T05:17:53.086Z,941.64
2024-02-15T05:18:53.416Z,941.62
2024-02-15T05:19:54.314Z,941.63
2024-02-15T05:20:54.838Z,941.63
2024-02-15T05:21:55.857Z,941.62
2024-02-15T05:22:56.572Z,941.61
2024-02-15T05:23:57.150Z,941.55
2024-02-15T05:24:58.212Z,941.57
2024-02-15T05:25:59.168Z,941.57
2024-02-15T05:26:59.936Z,941.6
2024-02-15T05:28:00.679Z,941.61
2024-02-15T05:29:00.983Z,941.61
2024-02-15T05:30:01.378Z,941.6
2024-02-15T05:31:01.631Z,941.62
2024-02-15T05:32:02.186Z,941.58
2024-02-15T05:33:02.910Z,941.58
2024-02-15T05:34:03.542Z,941.6
2024-02-15T05:35:03.993Z,941.61
2024-02-15T05:36:04.110Z,941.63
2024-02-15T05:37:05.065Z,941.63
2024-02-15T05:38:06.092Z,941.66
2024-02-15T05:39:06.893Z,941.68
2024-02-15T05:40:07.358Z,941.7
2024-02-15T05:41:07.560Z,941.71
2024-02-15T05:42:08.343Z,941.74
2024-02-15T05:43:09.320Z,941.73
2024-02-15T05:44:10.402Z,941.7
2024-02-15T05:45:11.127Z,941.73
2024-02-15T05:46:11.310Z,941.74
2024-02-15T05:47:12.032Z,941.74
2024-02-15T05:48:12.907Z,941.73
2024-02-15T05:49:13.069Z,941.73
2024-02-15T05:50:13.123Z,941.7
2024-02-15T05:51:14.137Z,941.68
2024-02-15T05:52:15.117Z,941.68
2024-02-15T05:53:15.849Z,941.66
2024-02-15T05:54:16.946Z,941.69
2024-02-15T05:55:17.908Z,941.64
2024-02-15T05:56:18.963Z,941.67
2024-02-15T05:57:20.087Z,941.6
2024-02-15T05:58:20.827Z,941.65
2024-02-15T05:59:21.835Z,941.62
2024-02-15T06:00:23.051Z,941.64
2024-02-15T06:01:23.195Z,941.63
2024-02-15T06:02:23.344Z,941.64
2024-02-15T06:03:24.241Z,941.6
2024-02-15T06:04:25.071Z,941.57
2024-02-15T06:05:25.784Z,941.62
2024-02-15T06:06:26.451Z,941.61
2024-02-15T06:07:26.944Z,941.61
2024-02-15T06:08:27.412Z,941.61
2024-02-15T06:09:28.243Z,941.68
2024-02-15T06:10:28.386Z,941.64
2024-02-15T06:11:29.163Z,941.62
2024-02-15T06:12:29.304Z,941.56
2024-02-15T06:13:29.992Z,941.56
2024-02-15T06:14:30.939Z,941.59
2024-02-15T06:15:31.588Z,941.59
2024-02-15T06:16:32.161Z,941.54
2024-02-15T06:17:33.130Z,941.56
2024-02-15T06:18:34.004Z,941.56
2024-02-15T06:19:34.107Z,941.55
2024-02-15T06:20:35.122Z,941.56
2024-02-15T06:21:35.854Z,941.58
2024-02-15T06:22:36.821Z,941.59
2024-02-15T06:23:37.030Z,941.59
2024-02-15T06:24:38.099Z,941.6
2024-02-15T06:25:38.233Z,941.61
2024-02-15T06:26:39.047Z,941.62
2024-02-15T06:27:39.342Z,941.6
2024-02-15T06:28:40.306Z,941.58
2024-02-15T06:29:40.842Z,941.61
2024-02-15T06:30:41.793Z,941.58
2024-02-15T06:31:42.496Z,941.57
2024-02-15T06:32:43.581Z,941.59
2024-02-15T06:33:44.386Z,941.58
2024-02-15T06:34:45.051Z,941.6
2024-02-15T06:35:45.298Z,941.63
2024-02-15T06:36:45.952Z,941.6
2024-02-15T06:37:46.056Z,941.64
2024-02-15T06:38:46.426Z,941.67
2024-02-15T06:39:47.278Z,941.62
2024-02-15T06:40:47.662Z,941.67
2024-02-15T06:41:48.673Z,941.67
2024-02-15T06:42:48.965Z,941.64
2024-02-15T06:43:49.653Z,941.63
2024-02-15T06:44:50.495Z,941.62
2024-02-15T06:45:50.590Z,941.67
2024-02-15T06:46:51.681Z,941.68
2024-02-15T06:47:52.227Z,941.69
2024-02-15T06:48:53.236Z,941.7
2024-02-15T06:49:53.464Z,941.68
2024-02-15T06:50:54.420Z,941.7
2024-02-15T06:51:54.932Z,941.7
2024-02-15T06:52:55.829Z,941.7
2024-02-15T06:53:56.387Z,941.71
2024-02-15T06:54:57.012Z,941.69
2024-02-15T06:55:57.134Z,941.74
2024-02-15T06:56:57.285Z,941.71
2024-02-15T06:57:58.148Z,941.73
2024-02-15T06:58:58.625Z,941.7
2024-02-15T06:59:59.587Z,941.73
2024-02-15T07:01:00.669Z,941.72
2024-02-15T07:02:01.511Z,941.71
2024-02-15T07:03:01.924Z,941.73
2024-02-15T07:04:02.067Z,941.73
2024-02-15T07:05:02.943Z,941.7
2024-02-15T07:06:03.969Z,941.67
2024-02-15T07:07:04.320Z,941.71
2024-02-15T07:08:04.675Z,941.69
2024-02-15T07:09:05.358Z,941.72
2024-02-15T07:10:05.508Z,941.75
2024-02-15T07:11:05.805Z,941.71
2024-02-15T07:12:05.918Z,941.73
2024-02-15T07:13:06.933Z,941.73
2024-02-15T07:14:07.649Z,941.77
2024-02-15T07:15:08.617Z,941.78
2024-02-15T07:16:09.463Z,941.76
2024-02-15T07:17:10.200Z,941.75
2024-02-15T07:18:11.204Z,941.74
2024-02-15T07:19:11.696Z,941.76
2024-02-15T07:20:11.675Z,941.73
2024-02-15T07:21:12.708Z,941.75
2024-02-15T07:22:13.541Z,941.77
2024-02-15T07:23:14.213Z,941.81
2024-02-15T07:24:14.748Z,941.82
2024-02-15T07:25:15.005Z,941.84
2024-02-15T07:26:15.759Z,941.85
2024-02-15T07:27:15.979Z,941.87
2024-02-15T07:28:16.840Z,941.85
2024-02-15T07:29:17.307Z,941.87
2024-02-15T07:30:17.495Z,941.88
2024-02-15T07:31:18.184Z,941.88
2024-02-15T07:32:19.151Z,941.86
2024-02-15T07:33:19.786Z,941.89
2024-02-15T07:34:20.321Z,941.85
2024-02-15T07:35:20.632Z,941.88
2024-02-15T07:36:20.984Z,941.86
2024-02-15T07:37:21.593Z,941.86
2024-02-15T07:38:22.542Z,941.9
2024-02-15T07:39:23.310Z,941.83
2024-02-15T07:40:23.552Z,941.91
2024-02-15T07:41:23.993Z,941.89
2024-02-15T07:42:24.468Z,941.9
2024-02-15T07:43:25.038Z,941.91
2024-02-15T07:44:25.465Z,941.96
2024-02-15T07:45:25.734Z,941.94
2024-02-15T07:46:25.878Z,941.87
2024-02-15T07:47:26.843Z,941.89
2024-02-15T07:48:27.311Z,941.92
2024-02-15T07:49:28.141Z,941.89
2024-02-15T07:50:28.646Z,941.94
2024-02-15T07:51:28.874Z,941.96
2024-02-15T07:52:29.609Z,941.91
2024-02-15T07:53:30.348Z,941.96
2024-02-15T07:54:31.395Z,941.97
2024-02-15T07:55:32.535Z,941.95
2024-02-15T07:56:32.851Z,941.99
2024-02-15T07:57:33.056Z,941.88
2024-02-15T07:58:33.287Z,941.92
2024-02-15T07:59:33.571Z,941.94
2024-02-15T08:00:33.991Z,941.83
2024-02-15T08:01:34.873Z,941.87
2024-02-15T08:02:35.290Z,941.89
2024-02-15T08:03:35.727Z,941.9
2024-02-15T08:04:35.992Z,941.89
2024-02-15T08:05:36.146Z,941.89
2024-02-15T08:06:37.033Z,941.9
2024-02-15T08:07:37.777Z,941.92
2024-02-15T08:08:38.793Z,941.92
2024-02-15T08:09:40.595Z,941.89
2024-02-15T08:10:39.928Z,941.86
2024-02-15T08:11:40.263Z,941.89
2024-02-15T08:12:40.350Z,941.89
2024-02-15T08:13:41.357Z,941.91
2024-02-15T08:14:41.588Z,941.91
2024-02-15T08:15:41.743Z,941.93
2024-02-15T08:16:42.264Z,941.96
2024-02-15T08:17:42.452Z,941.99
2024-02-15T08:18:43.206Z,941.94
2024-02-15T08:19:46.009Z,941.98
2024-02-15T08:20:44.454Z,941.92
2024-02-15T08:21:45.168Z,941.93
2024-02-15T08:22:46.156Z,941.91
2024-02-15T08:23:46.722Z,941.91
2024-02-15T08:24:47.148Z,941.88
2024-02-15T08:25:48.155Z,941.86
2024-02-15T08:26:49.017Z,941.86
2024-02-15T08:27:49.698Z,941.79
2024-02-15T08:28:50.475Z,941.8
2024-02-15T08:29:50.719Z,941.77
2024-02-15T08:30:51.066Z,941.71
2024-02-15T08:31:51.580Z,941.75
2024-02-15T08:32:52.403Z,941.71
2024-02-15T08:33:52.850Z,941.71
2024-02-15T08:34:53.266Z,941.67
2024-02-15T08:35:53.821Z,941.69
2024-02-15T08:36:54.513Z,941.66
2024-02-15T08:37:55.523Z,941.71
2024-02-15T08:38:56.140Z,941.65
2024-02-15T08:39:56.285Z,941.63
2024-02-15T08:40:57.062Z,941.61
2024-02-15T08:41:57.184Z,941.62
2024-02-15T08:42:57.408Z,941.65
2024-02-15T08:43:58.177Z,941.61
2024-02-15T08:44:58.919Z,941.6
2024-02-15T08:45:59.104Z,941.62
2024-02-15T08:46:59.915Z,941.61
2024-02-15T08:48:01.089Z,941.59
2024-02-15T08:49:01.618Z,941.6
2024-02-15T08:50:01.958Z,941.63
2024-02-15T08:51:02.782Z,941.63
2024-02-15T08:52:03.649Z,941.6
2024-02-15T08:53:04.147Z,941.62
2024-02-15T08:54:04.744Z,941.53
2024-02-15T08:55:05.138Z,941.48
2024-02-15T08:56:05.323Z,941.56
2024-02-15T08:57:06.245Z,941.51
2024-02-15T08:58:06.610Z,941.53
2024-02-15T08:59:07.578Z,941.53
2024-02-15T09:00:08.176Z,941.47
2024-02-15T09:01:08.753Z,941.47
2024-02-15T09:02:09.394Z,941.45
2024-02-15T09:03:10.443Z,941.38
2024-02-15T09:04:10.731Z,941.43
2024-02-15T09:05:11.223Z,941.44
2024-02-15T09:06:11.576Z,941.42
2024-02-15T09:07:12.109Z,941.43
2024-02-15T09:08:12.624Z,941.41
2024-02-15T09:09:13.428Z,941.39
2024-02-15T09:10:13.529Z,941.34
2024-02-15T09:11:14.747Z,941.39
2024-02-15T09:12:15.171Z,941.37
2024-02-15T09:13:15.680Z,941.43
2024-02-15T09:14:16.630Z,941.48
2024-02-15T09:15:17.615Z,941.43
2024-02-15T09:16:17.985Z,941.4
2024-02-15T09:17:18.863Z,941.39
2024-02-15T09:18:19.872Z,941.42
2024-02-15T09:19:20.910Z,941.41
2024-02-15T09:20:21.747Z,941.44
2024-02-15T09:21:22.573Z,941.52
2024-02-15T09:22:23.047Z,941.53
2024-02-15T09:23:23.197Z,941.54
2024-02-15T09:24:23.569Z,941.52
2024-02-15T09:25:23.933Z,941.44
2024-02-15T09:26:24.900Z,941.49
2024-02-15T09:27:25.217Z,941.44
2024-02-15T09:28:25.479Z,941.45
2024-02-15T09:29:25.709Z,941.44
2024-02-15T09:30:26.620Z,941.46
2024-02-15T09:31:27.582Z,941.43
2024-02-15T09:32:28.612Z,941.45
2024-02-15T09:33:29.242Z,941.46
2024-02-15T09:34:29.486Z,941.44
2024-02-15T09:35:29.739Z,941.43
2024-02-15T09:36:30.067Z,941.5
2024-02-15T09:37:30.263Z,941.44
2024-02-15T09:38:30.441Z,941.41
2024-02-15T09:39:31.355Z,941.47
2024-02-15T09:40:32.234Z,941.44
2024-02-15T09:41:33.237Z,941.42
2024-02-15T09:42:33.414Z,941.37
2024-02-15T09:43:33.636Z,941.38
2024-02-15T09:44:34.572Z,941.37
2024-02-15T09:45:35.035Z,941.35
2024-02-15T09:46:35.601Z,941.32
2024-02-15T09:47:36.372Z,941.38
2024-02-15T09:48:37.164Z,941.36
2024-02-15T09:49:37.596Z,941.32
2024-02-15T09:50:38.110Z,941.31
2024-02-15T09:51:38.766Z,941.34
2024-02-15T09:52:39.697Z,941.28
2024-02-15T09:53:40.740Z,941.25
2024-02-15T09:54:41.208Z,941.23
2024-02-15T09:55:42.182Z,941.27
2024-02-15T09:56:43.260Z,941.21
2024-02-15T09:57:43.632Z,941.23
2024-02-15T09:58:43.895Z,941.22
2024-02-15T09:59:44.628Z,941.21
2024-02-15T10:00:45.435Z,941.25
2024-02-15T10:01:45.601Z,941.31
2024-02-15T10:02:46.024Z,941.26
2024-02-15T10:03:46.654Z,941.25
2024-02-15T10:04:50.454Z,941.29
2024-02-15T10:05:47.979Z,941.31
2024-02-15T10:06:48.336Z,941.29
2024-02-15T10:07:48.909Z,941.27
2024-02-15T10:08:49.672Z,941.25
2024-02-15T10:09:50.545Z,941.26
2024-02-15T10:10:50.733Z,941.26
2024-02-15T10:11:50.969Z,941.21
2024-02-15T10:12:51.760Z,941.18
2024-02-15T10:13:52.202Z,941.19
2024-02-15T10:14:53.249Z,941.17
2024-02-15T10:15:53.652Z,941.14
2024-02-15T10:16:53.849Z,941.15
2024-02-15T10:17:54.077Z,941.15
2024-02-15T10:18:54.941Z,941.13
2024-02-15T10:19:55.808Z,941.13
2024-02-15T10:20:56.650Z,941.12
2024-02-15T10:21:57.613Z,941.15
2024-02-15T10:22:57.747Z,941.15
2024-02-15T10:23:58.708Z,941.1
2024-02-15T10:24:59.315Z,941.08
2024-02-15T10:26:00.101Z,941.04
2024-02-15T10:27:01.112Z,941.05
2024-02-15T10:28:01.465Z,941.04
2024-02-15T10:29:01.656Z,941.09
2024-02-15T10:30:01.964Z,941.03
2024-02-15T10:31:02.186Z,941.05
2024-02-15T10:32:03.069Z,941.04
2024-02-15T10:33:04.132Z,940.98
2024-02-15T10:34:04.249Z,940.99
2024-02-15T10:35:05.144Z,941.01
2024-02-15T10:36:05.310Z,941.02
2024-02-15T10:37:05.913Z,941
2024-02-15T10:38:06.854Z,940.99
2024-02-15T10:39:07.098Z,940.99
2024-02-15T10:40:08.011Z,940.94
2024-02-15T10:41:08.399Z,940.95
2024-02-15T10:42:09.056Z,940.94
2024-02-15T10:43:09.751Z,940.92
2024-02-15T10:44:10.686Z,940.91
2024-02-15T10:45:13.024Z,940.88
2024-02-15T10:46:12.235Z,940.82
2024-02-15T10:47:12.725Z,940.83
2024-02-15T10:48:13.182Z,940.82
2024-02-15T10:49:14.014Z,940.78
2024-02-15T10:50:14.100Z,940.8
2024-02-15T10:51:14.515Z,940.75
2024-02-15T10:52:14.833Z,940.74
2024-02-15T10:53:15.049Z,940.75
2024-02-15T10:54:15.571Z,940.69
2024-02-15T10:55:15.718Z,940.67
2024-02-15T10:56:16.688Z,940.7
2024-02-15T10:57:17.573Z,940.66
2024-02-15T10:58:18.650Z,940.66
2024-02-15T10:59:18.824Z,940.64
2024-02-15T11:00:19.525Z,940.65
2024-02-15T11:01:19.945Z,940.59
2024-02-15T11:02:20.387Z,940.59
2024-02-15T11:03:21.093Z,940.56
2024-02-15T11:04:21.415Z,940.56
2024-02-15T11:05:21.979Z,940.55
2024-02-15T11:06:22.767Z,940.54
2024-02-15T11:07:27.047Z,940.51
2024-02-15T11:08:24.206Z,940.46
2024-02-15T11:09:25.292Z,940.41
2024-02-15T11:10:26.036Z,940.37
2024-02-15T11:11:26.800Z,940.4
2024-02-15T11:12:27.768Z,940.36
2024-02-15T11:13:28.721Z,940.31
2024-02-15T11:14:29.034Z,940.37
2024-02-15T11:15:29.614Z,940.3
2024-02-15T11:16:30.539Z,940.3
2024-02-15T11:17:31.197Z,940.24
2024-02-15T11:18:31.471Z,940.22
2024-02-15T11:19:31.800Z,940.22
2024-02-15T11:20:32.613Z,940.17
2024-02-15T11:21:32.814Z,940.11
2024-02-15T11:22:33.564Z,940.1
2024-02-15T11:23:36.804Z,940.09
2024-02-15T11:24:34.855Z,940.08
2024-02-15T11:25:35.551Z,940.07
2024-02-15T11:26:36.338Z,940.02
2024-02-15T11:27:37.151Z,939.97
2024-02-15T11:28:38.132Z,940
2024-02-15T11:29:39.201Z,939.96
2024-02-15T11:30:39.296Z,939.93
2024-02-15T11:31:40.197Z,939.92
2024-02-15T11:32:41.198Z,939.87
2024-02-15T11:33:41.359Z,939.85
2024-02-15T11:34:42.274Z,939.85
2024-02-15T11:35:42.714Z,939.9
2024-02-15T11:36:43.022Z,939.83
2024-02-15T11:37:43.997Z,939.82
2024-02-15T11:38:45.234Z,939.79
2024-02-15T11:39:45.436Z,939.77
2024-02-15T11:40:46.398Z,939.76
2024-02-15T11:41:47.126Z,939.75
2024-02-15T11:42:47.982Z,939.75
2024-02-15T11:43:49.076Z,939.75
2024-02-15T11:44:50.190Z,939.75
2024-02-15T11:45:51.088Z,939.67
2024-02-15T11:46:51.330Z,939.69
2024-02-15T11:47:52.132Z,939.66
2024-02-15T11:48:52.318Z,939.63
2024-02-15T11:49:52.758Z,939.61
2024-02-15T11:50:52.960Z,939.6
2024-02-15T11:51:53.445Z,939.6
2024-02-15T11:52:54.303Z,939.57
2024-02-15T11:53:54.756Z,939.57
2024-02-15T11:54:54.818Z,939.56
2024-02-15T11:55:55.383Z,939.54
2024-02-15T11:56:56.384Z,939.52
2024-02-15T11:57:56.629Z,939.5
2024-02-15T11:58:56.806Z,939.47
2024-02-15T11:59:57.653Z,939.48
2024-02-15T12:00:57.917Z,939.46
2024-02-15T12:01:58.675Z,939.45
2024-02-15T12:02:59.203Z,939.46
2024-02-15T12:04:03.807Z,939.4
2024-02-15T12:05:00.233Z,939.42
2024-02-15T12:06:00.658Z,939.43
2024-02-15T12:07:01.659Z,939.41
2024-02-15T12:08:02.262Z,939.37
2024-02-15T12:09:03.209Z,939.39
2024-02-15T12:10:05.231Z,939.34
2024-02-15T12:11:04.724Z,939.29
2024-02-15T12:12:05.707Z,939.33
2024-02-15T12:13:06.703Z,939.32
2024-02-15T12:14:06.884Z,939.31
2024-02-15T12:15:07.813Z,939.3
2024-02-15T12:16:08.422Z,939.29
2024-02-15T12:17:09.385Z,939.31
2024-02-15T12:18:10.454Z,939.26
2024-02-15T12:19:10.981Z,939.24
2024-02-15T12:20:11.236Z,939.24
2024-02-15T12:21:12.040Z,939.18
2024-02-15T12:22:12.576Z,939.18
2024-02-15T12:23:13.387Z,939.21
2024-02-15T12:24:13.925Z,939.16
2024-02-15T12:25:14.071Z,939.13
2024-02-15T12:26:15.047Z,939.14
2024-02-15T12:27:15.209Z,939.12
2024-02-15T12:28:16.093Z,939.12
2024-02-15T12:29:16.278Z,939.1
2024-02-15T12:30:16.570Z,939.1
2024-02-15T12:31:17.425Z,939.08
2024-02-15T12:32:18.358Z,939.08
2024-02-15T12:33:19.461Z,939.12
2024-02-15T12:34:20.216Z,939.11
2024-02-15T12:35:21.359Z,939.06
2024-02-15T12:36:22.255Z,939.05
2024-02-15T12:37:23.134Z,939
2024-02-15T12:38:23.276Z,939.05
2024-02-15T12:39:24.303Z,939.02